Time;durP1;ratioP1;P1;durP2;ratioP2;P2;SDS_P1;SDS_P2;PMS_P1;PMS_P2;Temp;Humidity;BMP_temperature;BMP_pressure;BME280_temperature;BME280_humidity;BME280_pressure;Samples;Min_cycle;Max_cycle;Signal;HPM_P1;HPM_P2
2023/03/04 00:01:45;;;;;;;29.70;17.10;;;;;;;2.05;100.00;100454.09;179542;1270;44028;-85
2023/03/04 00:05:49;;;;;;;30.00;16.40;;;;;;;2.04;100.00;100445.58;179373;1270;58403;-85
2023/03/04 00:09:52;;;;;;;29.40;20.70;;;;;;;2.11;100.00;100445.63;179525;1270;43951;-86
2023/03/04 00:13:56;;;;;;;29.50;15.90;;;;;;;2.13;100.00;100433.98;179504;1270;44131;-86
2023/03/04 00:17:59;;;;;;;42.10;21.00;;;;;;;2.19;100.00;100423.08;179789;1270;44028;-85
2023/03/04 00:22:03;;;;;;;30.10;15.50;;;;;;;2.18;100.00;100411.89;179694;1270;43814;-85
2023/03/04 00:26:08;;;;;;;27.50;20.30;;;;;;;2.15;100.00;100408.17;179510;1270;58904;-85
2023/03/04 00:30:11;;;;;;;33.40;23.20;;;;;;;2.25;100.00;100399.36;179985;1270;44096;-85
2023/03/04 00:34:15;;;;;;;30.80;18.30;;;;;;;2.24;100.00;100401.48;179561;1270;44150;-85
2023/03/04 00:38:18;;;;;;;30.50;16.50;;;;;;;2.21;100.00;100397.77;179543;1270;44050;-85
2023/03/04 00:42:21;;;;;;;34.40;21.70;;;;;;;2.20;100.00;100403.77;179757;1270;43743;-85
2023/03/04 00:46:24;;;;;;;35.20;20.10;;;;;;;2.28;100.00;100395.55;180052;1270;58282;-84
2023/03/04 00:50:27;;;;;;;27.80;18.80;;;;;;;2.29;100.00;100369.42;180081;1270;43747;-85
2023/03/04 00:54:31;;;;;;;34.60;20.80;;;;;;;2.29;100.00;100366.06;179549;1270;43869;-85
2023/03/04 00:58:34;;;;;;;25.40;16.50;;;;;;;2.20;100.00;100357.55;179407;1271;44128;-85
2023/03/04 01:02:37;;;;;;;31.90;16.90;;;;;;;2.20;100.00;100347.61;179459;1270;43848;-85
2023/03/04 01:06:41;;;;;;;24.90;14.70;;;;;;;2.21;100.00;100347.38;179656;1270;58208;-84
2023/03/04 01:10:44;;;;;;;35.30;17.50;;;;;;;2.14;99.96;100336.31;179613;1270;43844;-85
2023/03/04 01:14:48;;;;;;;31.90;17.10;;;;;;;2.08;100.00;100330.80;179479;1270;44177;-85
2023/03/04 01:18:51;;;;;;;34.00;17.80;;;;;;;2.18;99.77;100333.16;179428;1272;43993;-86
2023/03/04 01:22:54;;;;;;;32.10;15.90;;;;;;;2.15;98.78;100319.48;179377;1270;43917;-86
2023/03/04 01:26:57;;;;;;;31.50;19.10;;;;;;;2.16;98.82;100322.06;179470;1270;58336;-86
2023/03/04 01:31:02;;;;;;;30.10;15.50;;;;;;;2.19;98.94;100330.68;179415;1270;44522;-86
2023/03/04 01:35:06;;;;;;;29.60;20.70;;;;;;;2.19;99.73;100337.66;179452;1270;44174;-86
2023/03/04 01:39:09;;;;;;;24.20;16.40;;;;;;;2.12;98.90;100326.61;179760;1271;43755;-84
2023/03/04 01:43:21;;;;;;;27.90;17.20;;;;;;;1.85;99.07;100331.31;179652;1270;44015;-84
2023/03/04 01:47:28;;;;;;;24.10;15.10;;;;;;;1.80;99.91;100315.63;179574;1272;59292;-85
2023/03/04 01:51:31;;;;;;;;;;;;;;;1.80;99.99;100322.63;179632;1270;43934;-85
2023/03/04 01:55:34;;;;;;;26.00;16.80;;;;;;;1.84;99.94;100313.86;179569;1270;43593;-85
2023/03/04 01:59:37;;;;;;;31.50;17.90;;;;;;;1.80;99.75;100301.63;179840;1270;44278;-85
2023/03/04 02:03:40;;;;;;;26.70;15.80;;;;;;;1.83;99.58;100299.76;179491;1270;43772;-85
2023/03/04 02:07:44;;;;;;;26.60;17.70;;;;;;;1.78;99.80;100292.09;179530;1270;59772;-84
2023/03/04 02:11:49;;;;;;;32.30;19.10;;;;;;;1.90;99.67;100292.08;179582;1270;43767;-85
2023/03/04 02:15:52;;;;;;;29.50;17.30;;;;;;;1.93;99.05;100295.45;179441;1270;43882;-85
2023/03/04 02:20:12;;;;;;;32.80;20.10;;;;;;;2.00;98.98;100290.08;179452;1270;43944;-84
2023/03/04 02:24:24;;;;;;;34.40;20.70;;;;;;;1.96;98.31;100280.09;179474;1270;43978;-85
2023/03/04 02:28:27;;;;;;;25.60;16.10;;;;;;;1.92;97.88;100276.63;179855;1270;58037;-85
2023/03/04 02:32:30;;;;;;;24.10;16.70;;;;;;;2.01;97.35;100280.40;179889;1270;44168;-85
2023/03/04 02:36:35;;;;;;;37.70;18.60;;;;;;;1.95;96.95;100282.79;179517;1270;43836;-86
2023/03/04 02:40:41;;;;;;;29.00;16.50;;;;;;;1.88;97.11;100282.41;179478;1270;44146;-84
2023/03/04 02:44:48;;;;;;;39.30;22.20;;;;;;;2.02;97.45;100289.43;179620;1270;44317;-86
2023/03/04 02:48:51;;;;;;;;;;;;;;;2.06;96.08;100280.87;180334;1270;58425;-84
2023/03/04 02:52:54;;;;;;;34.50;20.40;;;;;;;2.04;95.98;100280.59;180130;1272;43584;-86
2023/03/04 02:57:00;;;;;;;31.10;17.70;;;;;;;2.03;95.96;100277.88;179578;1270;43782;-85
2023/03/04 03:01:06;;;;;;;34.90;20.60;;;;;;;1.97;96.36;100276.57;179674;1270;44206;-85
2023/03/04 03:05:10;;;;;;;33.20;17.70;;;;;;;2.07;96.80;100269.45;179530;1270;43671;-85
2023/03/04 03:09:14;;;;;;;31.40;18.10;;;;;;;2.07;96.30;100271.53;179615;1270;60079;-85
2023/03/04 03:13:18;;;;;;;25.00;17.00;;;;;;;2.06;96.68;100266.51;179375;1270;44162;-85
2023/03/04 03:17:21;;;;;;;31.90;21.40;;;;;;;2.08;96.07;100257.34;179599;1270;44017;-85
2023/03/04 03:21:24;;;;;;;27.20;18.50;;;;;;;2.11;96.00;100258.77;179555;1270;44132;-85
2023/03/04 03:25:27;;;;;;;34.80;20.60;;;;;;;2.11;96.18;100253.69;179782;1270;44073;-86
2023/03/04 03:29:31;;;;;;;21.10;15.00;;;;;;;2.15;95.69;100259.11;179698;1270;59586;-85
2023/03/04 03:33:34;;;;;;;31.00;16.30;;;;;;;2.15;96.04;100257.36;179422;1270;43988;-85
2023/03/04 03:37:37;;;;;;;24.20;17.70;;;;;;;2.22;95.89;100248.84;179561;1270;44602;-85
2023/03/04 03:41:41;;;;;;;32.50;19.40;;;;;;;2.18;94.92;100221.73;179833;1270;43703;-85
2023/03/04 03:45:44;;;;;;;27.80;19.20;;;;;;;2.22;94.12;100221.02;179458;1270;43818;-85
2023/03/04 03:49:48;;;;;;;27.70;15.40;;;;;;;2.30;94.38;100223.42;179561;1270;60049;-85
2023/03/04 03:53:51;;;;;;;26.30;16.40;;;;;;;2.29;93.50;100213.30;179465;1270;44294;-85
2023/03/04 03:57:55;;;;;;;27.30;16.40;;;;;;;2.31;93.70;100225.80;179404;1270;44143;-85
2023/03/04 04:01:58;;;;;;;24.70;16.80;;;;;;;2.40;93.28;100221.34;179313;1270;44127;-85
2023/03/04 04:06:01;;;;;;;26.60;17.70;;;;;;;2.53;92.69;100215.30;179435;1270;43821;-86
2023/03/04 04:10:05;;;;;;;30.00;15.00;;;;;;;2.43;92.35;100222.23;179569;1270;59268;-85
2023/03/04 04:14:12;;;;;;;22.80;15.80;;;;;;;2.51;92.63;100216.42;179371;1270;43944;-85
2023/03/04 04:18:15;;;;;;;26.00;18.90;;;;;;;2.54;92.04;100211.58;179520;1273;47955;-85
2023/03/04 04:22:19;;;;;;;22.80;16.00;;;;;;;2.54;92.04;100214.90;179494;1272;44113;-85
2023/03/04 04:26:22;;;;;;;23.50;15.60;;;;;;;2.59;91.75;100210.13;179212;1270;44162;-85
2023/03/04 04:30:25;;;;;;;21.50;15.00;;;;;;;2.62;91.71;100211.54;179672;1270;60838;-85
2023/03/04 04:34:29;;;;;;;24.70;14.60;;;;;;;2.65;91.49;100195.42;179681;1270;43836;-86
2023/03/04 04:38:32;;;;;;;32.50;16.80;;;;;;;2.70;91.06;100189.94;179872;1270;44099;-85
2023/03/04 04:42:35;;;;;;;27.60;17.20;;;;;;;2.76;91.32;100186.49;179455;1270;43786;-85
2023/03/04 04:46:39;;;;;;;23.60;16.90;;;;;;;2.76;91.01;100173.52;179553;1270;44169;-85
2023/03/04 04:50:43;;;;;;;25.80;15.70;;;;;;;2.81;91.04;100169.95;180460;1270;59591;-83
2023/03/04 04:54:46;;;;;;;23.60;16.10;;;;;;;2.86;90.80;100167.59;180110;1270;44033;-85
2023/03/04 04:58:49;;;;;;;32.50;20.00;;;;;;;2.81;90.38;100154.86;179375;1270;309815;-84
2023/03/04 05:02:52;;;;;;;30.00;19.30;;;;;;;2.87;90.91;100148.27;179519;1270;44281;-85
2023/03/04 05:06:56;;;;;;;29.40;16.50;;;;;;;2.87;90.50;100144.07;179774;1270;44012;-85
2023/03/04 05:11:00;;;;;;;24.40;17.10;;;;;;;2.86;90.52;100136.80;179347;1270;58735;-85
2023/03/04 05:15:04;;;;;;;24.30;15.90;;;;;;;2.89;90.69;100142.23;179556;1270;44161;-86
2023/03/04 05:19:07;;;;;;;28.40;17.80;;;;;;;2.91;90.55;100142.11;179568;1270;44034;-85
2023/03/04 05:23:11;;;;;;;34.80;18.70;;;;;;;2.92;90.61;100142.23;179332;1270;44205;-86
2023/03/04 05:27:14;;;;;;;26.20;17.10;;;;;;;2.83;90.76;100143.19;179539;1270;43947;-85
2023/03/04 05:31:18;;;;;;;29.50;19.50;;;;;;;2.84;90.67;100152.30;179751;1270;59669;-84
2023/03/04 05:35:21;;;;;;;28.10;16.40;;;;;;;2.78;90.39;100169.05;179359;1270;43787;-85
2023/03/04 05:39:24;;;;;;;32.30;22.30;;;;;;;2.76;90.60;100174.77;179541;1270;43985;-85
2023/03/04 05:43:28;;;;;;;37.00;19.60;;;;;;;2.73;91.19;100176.13;179755;1270;44261;-85
2023/03/04 05:47:31;;;;;;;40.10;21.30;;;;;;;2.74;91.82;100187.12;179586;1270;44250;-85
2023/03/04 05:51:35;;;;;;;46.60;21.90;;;;;;;2.69;92.19;100176.66;179583;1270;59712;-85
2023/03/04 05:55:38;;;;;;;38.30;23.00;;;;;;;2.68;91.57;100174.61;179498;1270;43880;-85
2023/03/04 05:59:42;;;;;;;41.90;21.90;;;;;;;2.69;91.66;100179.66;179369;1270;43975;-85
2023/03/04 06:03:48;;;;;;;41.30;20.80;;;;;;;2.70;91.49;100181.19;179487;1270;43906;-85
2023/03/04 06:07:51;;;;;;;34.00;20.80;;;;;;;2.75;91.64;100198.12;179539;1270;44058;-85
2023/03/04 06:11:54;;;;;;;38.00;22.90;;;;;;;2.71;91.40;100193.57;179528;1270;58008;-84
2023/03/04 06:15:58;;;;;;;32.40;19.50;;;;;;;2.68;90.85;100182.32;179440;1275;44046;-84
2023/03/04 06:20:03;;;;;;;40.10;23.80;;;;;;;2.72;91.35;100189.13;179527;1270;43932;-84
2023/03/04 06:24:06;;;;;;;30.00;17.00;;;;;;;2.70;92.10;100194.17;179431;1273;47629;-84
2023/03/04 06:28:09;;;;;;;37.50;23.30;;;;;;;2.74;92.94;100202.16;179521;1270;43774;-85
2023/03/04 06:32:12;;;;;;;29.00;17.30;;;;;;;2.71;93.06;100204.61;179628;1270;58316;-85
2023/03/04 06:36:15;;;;;;;32.00;19.80;;;;;;;2.69;93.01;100208.55;179652;1270;43784;-85
2023/03/04 06:40:19;;;;;;;30.30;18.50;;;;;;;2.73;92.50;100207.83;179539;1270;43784;-85
2023/03/04 06:44:22;;;;;;;29.50;17.90;;;;;;;2.76;92.32;100212.77;179657;1270;44035;-85
2023/03/04 06:48:26;;;;;;;26.00;17.20;;;;;;;2.76;92.48;100204.02;179529;1270;44169;-85
2023/03/04 06:52:30;;;;;;;29.00;17.20;;;;;;;2.82;93.06;100203.71;179960;1270;59135;-84
2023/03/04 06:56:33;;;;;;;28.20;15.10;;;;;;;2.93;92.56;100190.36;180239;1270;43890;-86
2023/03/04 07:00:36;;;;;;;27.00;14.00;;;;;;;3.02;92.32;100190.42;179420;1270;44052;-85
2023/03/04 07:04:39;;;;;;;27.60;15.30;;;;;;;3.04;92.89;100190.13;179567;1270;44303;-86
2023/03/04 07:08:42;;;;;;;34.30;18.40;;;;;;;3.19;93.37;100198.70;179488;1273;44203;-84
2023/03/04 07:12:46;;;;;;;22.10;14.30;;;;;;;3.24;93.20;100183.65;179380;1270;59273;-84
2023/03/04 07:16:49;;;;;;;31.60;18.50;;;;;;;3.30;93.21;100186.53;179767;1270;43818;-85
2023/03/04 07:20:53;;;;;;;25.60;17.80;;;;;;;3.29;93.86;100195.70;179840;1270;43879;-85
2023/03/04 07:24:56;;;;;;;29.70;20.20;;;;;;;3.38;94.04;100192.77;179502;1270;44330;-84
2023/03/04 07:28:59;;;;;;;37.20;22.50;;;;;;;3.45;94.04;100195.55;179632;1270;43845;-85
2023/03/04 07:33:03;;;;;;;27.90;19.60;;;;;;;3.52;94.57;100199.70;179748;1270;58934;-86
2023/03/04 07:37:06;;;;;;;31.30;17.30;;;;;;;3.48;94.59;100190.99;179703;1270;43831;-86
2023/03/04 07:41:10;;;;;;;28.20;18.90;;;;;;;3.48;95.25;100189.42;179530;1270;43931;-85
2023/03/04 07:45:13;;;;;;;26.10;14.80;;;;;;;3.53;95.21;100186.55;179501;1270;45441;-85
2023/03/04 07:49:16;;;;;;;24.50;15.70;;;;;;;3.50;95.20;100190.37;179754;1270;43742;-86
2023/03/04 07:53:20;;;;;;;19.90;13.90;;;;;;;3.55;95.27;100190.46;179538;1270;59290;-86
2023/03/04 07:57:23;;;;;;;23.90;14.00;;;;;;;3.61;95.61;100191.00;179517;1270;44035;-86
2023/03/04 08:01:30;;;;;;;29.20;12.70;;;;;;;3.69;95.26;100191.30;179512;1270;44138;-86
2023/03/04 08:05:34;;;;;;;22.10;12.90;;;;;;;3.65;95.67;100190.27;179453;1272;43757;-86
2023/03/04 08:09:38;;;;;;;18.80;10.70;;;;;;;3.64;96.00;100201.91;179790;1271;43854;-86
2023/03/04 08:13:42;;;;;;;19.70;10.00;;;;;;;3.53;96.45;100191.82;179597;1273;59699;-85
2023/03/04 08:17:45;;;;;;;19.20;12.00;;;;;;;3.57;97.57;100188.27;179548;1270;44269;-84
2023/03/04 08:21:48;;;;;;;17.40;11.10;;;;;;;3.64;98.05;100178.73;179377;1270;44246;-85
2023/03/04 08:25:51;;;;;;;20.20;10.60;;;;;;;3.72;97.40;100174.30;179494;1270;44165;-84
2023/03/04 08:29:55;;;;;;;15.10;8.00;;;;;;;3.75;97.52;100167.14;179741;1270;43742;-85
2023/03/04 08:34:02;;;;;;;14.80;9.70;;;;;;;3.83;97.06;100156.84;179512;1271;60880;-83
2023/03/04 08:38:06;;;;;;;13.30;8.60;;;;;;;3.85;97.35;100162.88;179535;1270;44218;-84
2023/03/04 08:42:09;;;;;;;18.20;10.10;;;;;;;3.92;96.87;100161.63;179875;1270;43847;-84
2023/03/04 08:46:12;;;;;;;20.50;11.00;;;;;;;3.97;97.25;100160.27;179471;1272;44154;-85
2023/03/04 08:50:16;;;;;;;15.20;8.40;;;;;;;4.03;97.06;100158.73;179430;1270;44297;-85
2023/03/04 08:54:19;;;;;;;15.90;8.80;;;;;;;4.07;97.18;100158.15;179527;1270;58409;-84
2023/03/04 08:58:23;;;;;;;15.20;9.90;;;;;;;4.15;97.11;100155.08;180039;1270;43898;-84
2023/03/04 09:02:26;;;;;;;12.00;7.60;;;;;;;4.26;97.11;100153.36;180240;1270;43611;-87
2023/03/04 09:06:29;;;;;;;17.40;9.20;;;;;;;4.30;96.20;100146.82;179474;1270;43926;-83
2023/03/04 09:10:36;;;;;;;16.80;9.60;;;;;;;4.27;97.12;100148.96;179503;1270;43877;-88
2023/03/04 09:14:39;;;;;;;13.60;8.90;;;;;;;4.33;96.51;100153.84;179370;1270;60483;-84
2023/03/04 09:18:43;;;;;;;17.10;9.60;;;;;;;4.37;96.81;100158.19;179643;1270;43767;-85
2023/03/04 09:22:46;;;;;;;19.50;10.40;;;;;;;4.33;97.62;100155.11;179461;1270;44280;-84
2023/03/04 09:26:50;;;;;;;20.00;8.70;;;;;;;4.44;98.42;100156.23;179451;1270;44035;-85
2023/03/04 09:30:54;;;;;;;15.70;10.30;;;;;;;4.56;98.41;100155.67;179625;1270;44169;-85
2023/03/04 09:34:57;;;;;;;14.10;8.10;;;;;;;4.62;98.16;100155.33;179757;1270;59612;-86
2023/03/04 09:39:03;;;;;;;18.30;8.40;;;;;;;4.74;98.94;100160.80;179465;1270;44378;-87
2023/03/04 09:43:20;;;;;;;23.70;10.30;;;;;;;4.82;98.79;100152.95;179469;1270;44142;-86
2023/03/04 09:47:25;;;;;;;17.50;9.30;;;;;;;4.91;98.90;100149.94;179515;1270;44523;-86
2023/03/04 09:51:43;;;;;;;12.30;8.10;;;;;;;4.96;98.94;100143.32;179425;1270;44925;-86
2023/03/04 09:55:50;;;;;;;15.30;9.10;;;;;;;4.93;99.05;100128.05;179538;1270;59297;-87
2023/03/04 10:00:11;;;;;;;16.50;11.00;;;;;;;4.95;99.97;100123.33;179565;1271;44308;-86
2023/03/04 10:04:23;;;;;;;19.50;9.40;;;;;;;5.08;99.94;100125.73;179583;1270;43793;-86
2023/03/04 10:09:11;;;;;;;21.60;10.20;;;;;;;5.06;99.75;100119.35;179472;1271;44392;-85
2023/03/04 10:13:22;;;;;;;11.50;7.90;;;;;;;5.29;99.56;100114.20;179583;1270;44171;-86
2023/03/04 10:17:41;;;;;;;15.80;8.30;;;;;;;5.36;99.21;100108.54;179410;1271;59144;-85
2023/03/04 10:21:48;;;;;;;10.60;8.40;;;;;;;5.34;98.85;100106.91;179527;1270;43998;-85
2023/03/04 10:25:53;;;;;;;17.50;10.40;;;;;;;5.39;99.06;100096.56;179338;1271;43793;-84
2023/03/04 10:29:59;;;;;;;12.40;8.70;;;;;;;5.48;98.57;100091.42;179353;1270;44317;-84
2023/03/04 10:34:03;;;;;;;11.90;8.80;;;;;;;5.44;97.72;100093.96;179422;1270;44049;-85
2023/03/04 10:38:08;;;;;;;11.10;7.50;;;;;;;5.52;98.29;100091.02;179257;1275;60168;-86
2023/03/04 10:42:15;;;;;;;9.40;6.80;;;;;;;5.69;97.40;100081.83;179418;1273;44169;-85
2023/03/04 10:46:20;;;;;;;9.90;6.50;;;;;;;5.86;96.95;100088.50;179645;1270;44114;-85
2023/03/04 10:50:27;;;;;;;8.60;5.60;;;;;;;5.96;95.43;100086.98;179602;1271;44424;-84
2023/03/04 10:54:39;;;;;;;9.80;5.30;;;;;;;5.97;94.42;100080.77;179260;1274;43813;-85
2023/03/04 10:58:43;;;;;;;15.60;6.80;;;;;;;5.98;93.95;100091.09;179633;1270;57950;-84
2023/03/04 11:02:47;;;;;;;9.30;6.10;;;;;;;5.85;94.76;100088.89;179446;1271;43995;-85
2023/03/04 11:06:51;;;;;;;7.30;6.00;;;;;;;5.77;95.58;100077.81;179787;1270;43852;-84
2023/03/04 11:10:55;;;;;;;12.90;7.90;;;;;;;5.79;96.24;100088.39;180372;1270;43401;-87
2023/03/04 11:14:58;;;;;;;12.00;6.80;;;;;;;5.74;96.27;100084.52;179457;1273;44332;-85
2023/03/04 11:19:10;;;;;;;12.90;8.40;;;;;;;5.46;96.76;100078.56;179388;1270;58705;-84
2023/03/04 11:23:17;;;;;;;10.10;6.20;;;;;;;5.30;98.31;100078.66;179375;1272;44357;-84
2023/03/04 11:27:33;;;;;;;9.10;6.60;;;;;;;5.41;97.79;100071.83;179737;1270;43835;-85
2023/03/04 11:31:45;;;;;;;7.50;6.50;;;;;;;5.46;97.28;100075.77;179471;1273;44030;-86
2023/03/04 11:36:01;;;;;;;7.70;5.80;;;;;;;5.38;97.43;100069.06;179400;1273;44494;-86
2023/03/04 11:40:15;;;;;;;12.50;7.10;;;;;;;5.48;98.25;100068.39;179634;1270;59406;-83
2023/03/04 11:44:18;;;;;;;11.00;7.70;;;;;;;5.57;98.08;100064.31;179459;1272;44134;-83
2023/03/04 11:48:28;;;;;;;11.90;7.00;;;;;;;5.70;96.87;100051.48;179566;1270;43912;-83
2023/03/04 11:53:08;;;;;;;14.70;9.30;;;;;;;5.73;97.46;100057.81;179650;1270;43725;-85
2023/03/04 11:57:48;;;;;;;11.20;6.60;;;;;;;5.75;95.94;100050.14;179559;1272;43908;-85
2023/03/04 12:02:04;;;;;;;10.50;7.70;;;;;;;5.71;95.61;100048.45;179634;1272;57973;-85
2023/03/04 12:06:41;;;;;;;15.10;8.20;;;;;;;5.77;96.12;100045.95;179315;1273;44250;-85
2023/03/04 12:11:11;;;;;;;6.80;5.20;;;;;;;5.82;97.94;100049.14;179702;1270;43900;-85
2023/03/04 12:15:55;;;;;;;9.60;6.40;;;;;;;5.83;95.62;100036.20;179686;1271;43750;-84
2023/03/04 12:20:17;;;;;;;16.00;8.10;;;;;;;6.01;95.83;100030.30;179595;1270;44139;-83
2023/03/04 12:24:58;;;;;;;9.00;7.00;;;;;;;6.19;93.61;100020.17;179621;1270;58990;-84
2023/03/04 12:29:39;;;;;;;13.20;6.90;;;;;;;6.34;93.04;100031.63;179576;1270;43806;-85
2023/03/04 12:34:05;;;;;;;12.40;6.50;;;;;;;6.48;92.45;100009.41;178367;1278;44012;-86
2023/03/04 12:38:35;;;;;;;6.30;5.30;;;;;;;6.41;92.04;100012.48;178340;1278;44199;-84
2023/03/04 12:42:44;;;;;;;6.60;5.20;;;;;;;6.38;91.58;100009.37;178307;1279;43807;-84
2023/03/04 12:47:15;;;;;;;9.30;6.80;;;;;;;6.27;91.38;100008.91;178375;1278;57981;-85
2023/03/04 12:51:40;;;;;;;14.40;6.40;;;;;;;6.31;92.40;100010.18;178325;1278;43904;-85
2023/03/04 12:55:45;;;;;;;9.70;6.20;;;;;;;6.27;92.21;100012.22;178154;1278;44036;-83
2023/03/04 13:00:29;;;;;;;11.20;7.30;;;;;;;6.18;92.07;100021.13;178286;1279;44034;-85
2023/03/04 13:04:44;;;;;;;13.60;8.10;;;;;;;6.27;92.82;100017.34;177981;1278;43907;-84
2023/03/04 13:09:14;;;;;;;9.10;6.10;;;;;;;6.33;90.97;100003.15;178418;1276;59599;-84
2023/03/04 13:13:41;;;;;;;7.60;4.70;;;;;;;6.37;90.00;100008.02;178473;1276;44030;-84
2023/03/04 13:17:52;;;;;;;17.60;6.40;;;;;;;6.25;92.06;99999.88;178491;1276;43980;-85
2023/03/04 13:21:56;;;;;;;8.50;4.90;;;;;;;6.24;92.89;100001.31;178810;1277;43205;-82
2023/03/04 13:26:18;;;;;;;9.00;5.70;;;;;;;6.15;94.60;100013.56;178881;1276;43882;-85
2023/03/04 13:30:33;;;;;;;9.40;6.20;;;;;;;6.24;97.23;100006.98;178350;1278;59277;-85
2023/03/04 13:34:52;;;;;;;8.50;5.40;;;;;;;6.16;98.05;100004.52;178285;1278;44219;-85
2023/03/04 13:39:24;;;;;;;10.70;7.50;;;;;;;6.20;98.20;100003.86;179198;1270;44225;-84
2023/03/04 13:43:39;;;;;;;6.70;5.00;;;;;;;6.28;98.82;99997.91;179441;1269;43907;-84
2023/03/04 13:47:44;;;;;;;7.00;5.80;;;;;;;6.41;97.11;99992.12;179354;1270;44353;-84
2023/03/04 13:51:47;;;;;;;11.50;5.90;;;;;;;6.47;96.16;99990.10;179293;1270;58416;-85
2023/03/04 13:56:11;;;;;;;12.10;5.80;;;;;;;6.47;94.96;99985.86;179476;1270;44066;-84
2023/03/04 14:00:14;;;;;;;11.20;5.50;;;;;;;6.52;94.48;99986.96;179731;1271;43997;-84
2023/03/04 14:04:21;;;;;;;8.00;4.20;;;;;;;6.40;92.65;99983.86;179382;1270;55393;-85
2023/03/04 14:08:24;;;;;;;5.50;3.10;;;;;;;6.35;91.06;99981.73;179482;1270;44065;-84
2023/03/04 14:12:33;;;;;;;10.10;6.20;;;;;;;6.33;90.80;99986.48;179458;1270;58397;-83
2023/03/04 14:16:47;;;;;;;6.20;3.70;;;;;;;6.32;89.10;99989.34;179217;1270;44273;-84
2023/03/04 14:20:51;;;;;;;8.90;4.20;;;;;;;6.31;87.43;99989.43;179356;1270;43929;-84
2023/03/04 14:25:05;;;;;;;9.00;4.40;;;;;;;6.36;88.70;99989.40;179274;1273;44085;-85
2023/03/04 14:29:29;;;;;;;7.40;2.60;;;;;;;6.32;90.04;99979.27;179546;1270;43853;-84
2023/03/04 14:33:33;;;;;;;7.60;4.90;;;;;;;6.32;92.40;99981.41;179507;1270;59660;-83
2023/03/04 14:37:52;;;;;;;10.30;3.20;;;;;;;6.23;93.11;99981.53;179375;1270;43818;-84
2023/03/04 14:42:00;;;;;;;4.80;3.10;;;;;;;6.08;93.30;99987.45;179479;1270;43850;-84
2023/03/04 14:46:10;;;;;;;5.70;2.90;;;;;;;6.13;93.86;99978.65;179367;1270;43908;-84
2023/03/04 14:50:16;;;;;;;6.00;4.10;;;;;;;6.23;94.11;99979.58;179516;1269;44262;-84
2023/03/04 14:54:42;;;;;;;8.80;4.90;;;;;;;6.23;94.16;99979.08;179538;1270;57922;-82
2023/03/04 14:58:54;;;;;;;37.60;21.80;;;;;;;6.26;94.95;99982.87;179238;1270;44340;-85
2023/03/04 15:03:22;;;;;;;9.60;5.70;;;;;;;6.24;93.89;99977.53;179447;1270;44069;-85
2023/03/04 15:07:36;;;;;;;9.60;4.50;;;;;;;6.24;94.78;99977.39;179263;1270;44203;-83
2023/03/04 15:11:50;;;;;;;13.70;6.70;;;;;;;6.19;95.80;99971.42;179328;1270;44077;-84
2023/03/04 15:16:00;;;;;;;13.30;6.50;;;;;;;6.15;97.05;99970.78;179514;1270;59693;-84
2023/03/04 15:20:06;;;;;;;10.10;6.60;;;;;;;6.06;97.87;99973.85;179283;1270;43929;-84
2023/03/04 15:24:10;;;;;;;9.60;5.80;;;;;;;6.07;98.02;99974.11;179623;1270;43779;-84
2023/03/04 15:28:18;;;;;;;10.30;8.00;;;;;;;6.02;98.95;99970.22;179447;1270;43847;-84
2023/03/04 15:32:23;;;;;;;11.50;6.30;;;;;;;5.97;99.50;99973.54;179181;1270;44012;-84
2023/03/04 15:36:26;;;;;;;12.50;6.70;;;;;;;5.90;100.00;99971.73;179324;1270;58479;-83
2023/03/04 15:40:32;;;;;;;10.00;6.80;;;;;;;5.94;100.00;99973.77;179839;1270;43855;-81
2023/03/04 15:44:35;;;;;;;9.20;6.00;;;;;;;5.88;99.94;99976.09;179889;1270;43995;-84
2023/03/04 15:48:38;;;;;;;10.00;7.00;;;;;;;5.90;99.97;99975.92;179371;1270;44180;-84
2023/03/04 15:52:41;;;;;;;13.20;5.30;;;;;;;5.93;100.00;99976.11;179464;1270;43785;-84
2023/03/04 15:56:44;;;;;;;10.80;8.80;;;;;;;5.91;100.00;99972.16;179433;1270;58181;-86
2023/03/04 16:00:47;;;;;;;6.80;4.90;;;;;;;5.88;100.00;99970.77;179348;1270;44147;-84
2023/03/04 16:04:50;;;;;;;8.80;6.40;;;;;;;5.87;100.00;99971.73;179414;1273;44250;-84
2023/03/04 16:08:53;;;;;;;9.80;6.60;;;;;;;5.94;99.92;99974.27;179477;1272;44205;-84
2023/03/04 16:12:57;;;;;;;12.70;7.40;;;;;;;6.04;99.68;99973.84;179480;1270;43790;-84
2023/03/04 16:17:00;;;;;;;8.90;5.80;;;;;;;6.05;99.91;99974.42;179323;1273;59693;-84
2023/03/04 16:21:04;;;;;;;10.10;6.70;;;;;;;5.99;99.59;99977.10;179260;1270;43879;-84
2023/03/04 16:25:16;;;;;;;10.10;7.30;;;;;;;6.02;99.19;99977.60;179263;1272;44087;-84
2023/03/04 16:29:19;;;;;;;9.80;7.00;;;;;;;5.94;99.11;99978.86;179297;1270;43881;-84
2023/03/04 16:33:22;;;;;;;8.70;5.60;;;;;;;5.81;98.94;99974.93;179309;1270;44045;-83
2023/03/04 16:37:25;;;;;;;11.10;6.00;;;;;;;5.79;97.92;99973.48;179504;1270;57955;-83
2023/03/04 16:41:29;;;;;;;13.40;5.90;;;;;;;5.78;97.61;99983.41;179316;1270;44315;-84
2023/03/04 16:45:34;;;;;;;11.80;4.10;;;;;;;5.77;97.86;99991.44;179393;1271;44253;-84
2023/03/04 16:49:38;;;;;;;16.50;6.00;;;;;;;5.70;98.66;100000.69;179693;1270;44091;-85
2023/03/04 16:53:46;;;;;;;9.50;4.20;;;;;;;5.63;98.91;99996.04;179305;1272;47890;-84
2023/03/04 16:57:49;;;;;;;10.70;5.20;;;;;;;5.59;98.89;100010.72;179661;1270;58478;-84
2023/03/04 17:01:53;;;;;;;12.40;5.40;;;;;;;5.41;99.47;100011.31;179408;1270;203050;-83
2023/03/04 17:05:56;;;;;;;11.50;7.80;;;;;;;5.32;99.95;100016.61;179317;1270;43944;-83
2023/03/04 17:09:59;;;;;;;8.00;6.00;;;;;;;5.31;100.00;100022.02;179361;1270;44135;-84
2023/03/04 17:14:02;;;;;;;17.50;9.80;;;;;;;5.31;100.00;100028.27;179482;1271;43848;-83
2023/03/04 17:18:05;;;;;;;16.40;8.30;;;;;;;5.37;99.94;100029.39;179544;1270;59532;-84
2023/03/04 17:22:08;;;;;;;16.50;9.20;;;;;;;5.36;98.80;100030.63;179441;1270;43856;-83
2023/03/04 17:26:14;;;;;;;9.40;6.50;;;;;;;5.33;98.39;100037.54;179399;1270;43928;-84
2023/03/04 17:30:17;;;;;;;17.70;6.10;;;;;;;5.36;97.43;100032.61;179507;1270;54385;-83
2023/03/04 17:34:20;;;;;;;15.20;7.70;;;;;;;5.28;97.67;100031.81;179515;1270;44097;-83
2023/03/04 17:38:23;;;;;;;13.00;7.10;;;;;;;5.30;98.44;100026.59;179587;1270;59297;-83
2023/03/04 17:42:26;;;;;;;6.20;3.80;;;;;;;5.31;98.74;100033.06;179664;1270;44003;-84
2023/03/04 17:46:29;;;;;;;15.40;6.30;;;;;;;5.21;99.21;100034.03;179585;1270;43930;-84
2023/03/04 17:50:32;;;;;;;10.30;4.80;;;;;;;5.22;99.26;100036.45;179464;1270;44078;-85
2023/03/04 17:54:36;;;;;;;9.50;5.40;;;;;;;5.19;99.09;100042.60;180258;1270;43880;-83
2023/03/04 17:58:39;;;;;;;18.30;6.90;;;;;;;5.15;98.65;100040.77;180141;1270;58097;-84
2023/03/04 18:02:43;;;;;;;19.40;6.00;;;;;;;5.13;98.19;100041.04;179794;1270;43741;-84
2023/03/04 18:06:46;;;;;;;14.30;5.10;;;;;;;5.13;97.17;100037.02;179382;1270;43950;-83
2023/03/04 18:10:50;;;;;;;12.90;5.30;;;;;;;5.09;97.16;100037.06;179457;1270;43890;-83
2023/03/04 18:14:53;;;;;;;8.50;4.80;;;;;;;5.12;96.19;100042.89;179411;1271;44020;-83
2023/03/04 18:19:00;;;;;;;13.20;7.20;;;;;;;5.12;96.17;100043.05;179545;1270;58662;-83
2023/03/04 18:23:03;;;;;;;17.60;6.60;;;;;;;5.13;94.41;100043.88;179574;1270;44214;-83
2023/03/04 18:27:06;;;;;;;15.10;7.70;;;;;;;5.15;93.76;100049.04;179451;1269;43958;-83
2023/03/04 18:31:09;;;;;;;16.50;7.50;;;;;;;5.10;95.37;100048.42;179723;1270;44229;-83
2023/03/04 18:35:13;;;;;;;18.50;7.80;;;;;;;5.12;95.99;100046.36;179355;1270;44135;-85
2023/03/04 18:39:19;;;;;;;22.20;7.40;;;;;;;5.06;95.68;100050.62;179343;1270;60342;-85
2023/03/04 18:43:25;;;;;;;12.40;5.50;;;;;;;4.99;95.59;100052.29;179678;1262;43951;-81
2023/03/04 18:47:31;;;;;;;9.70;6.00;;;;;;;4.96;95.19;100049.85;180051;1267;44213;-82
2023/03/04 18:51:35;;;;;;;18.30;6.10;;;;;;;4.91;96.16;100056.96;180218;1265;43728;-83
2023/03/04 18:55:38;;;;;;;14.10;5.80;;;;;;;4.90;96.03;100057.58;180570;1265;43575;-84